Time;durP1;ratioP1;P1;durP2;ratioP2;P2;SDS_P1;SDS_P2;PMS_P1;PMS_P2;Temp;Humidity;BMP_temperature;BMP_pressure;BME280_temperature;BME280_humidity;BME280_pressure;Samples;Min_cycle;Max_cycle;Signal;HPM_P1;HPM_P2
2022/08/21 00:00:35;;;;;;;10.57;6.00;;;;;;;21.61;100.00;98717.25;5051512;28;20758;-56
2022/08/21 00:03:05;;;;;;;12.68;6.57;;;;;;;21.66;100.00;98725.63;5051396;28;20714;-55
2022/08/21 00:05:36;;;;;;;12.48;7.32;;;;;;;21.72;100.00;98743.59;5051642;28;20207;-58
2022/08/21 00:08:05;;;;;;;10.55;6.68;;;;;;;21.72;100.00;98745.38;5051612;28;20215;-58
2022/08/21 00:10:33;;;;;;;8.50;6.15;;;;;;;21.72;100.00;98735.66;5051295;28;20193;-58
2022/08/21 00:13:01;;;;;;;10.05;6.38;;;;;;;21.88;100.00;98748.38;5051380;28;20193;-59
2022/08/21 00:15:31;;;;;;;12.50;6.78;;;;;;;21.90;100.00;98741.13;5054841;28;20279;-56
2022/08/21 00:17:58;;;;;;;10.05;6.47;;;;;;;21.83;100.00;98732.06;5071010;28;20224;-59
2022/08/21 00:20:26;;;;;;;8.88;6.97;;;;;;;21.82;100.00;98733.03;5071104;28;20269;-56
2022/08/21 00:22:53;;;;;;;10.52;6.60;;;;;;;21.86;100.00;98726.53;5071369;28;20681;-57
2022/08/21 00:25:22;;;;;;;11.82;7.28;;;;;;;;;;5071033;28;20200;-56
2022/08/21 00:27:49;;;;;;;8.05;6.57;;;;;;;21.85;100.00;98726.66;5071003;28;20725;-56
2022/08/21 00:30:18;;;;;;;9.43;6.35;;;;;;;21.76;100.00;98719.53;5070263;28;20196;-56
2022/08/21 00:32:45;;;;;;;12.55;7.15;;;;;;;21.80;100.00;98718.28;5070884;28;20196;-55
2022/08/21 00:35:15;;;;;;;13.02;6.50;;;;;;;21.79;100.00;98717.44;5070690;28;20240;-55
2022/08/21 00:37:43;;;;;;;16.45;7.25;;;;;;;21.84;100.00;98717.91;5070836;28;20202;-55
2022/08/21 00:40:13;;;;;;;10.20;6.63;;;;;;;21.96;100.00;98731.84;5071085;28;20220;-55
2022/08/21 00:42:43;;;;;;;13.80;6.50;;;;;;;21.90;100.00;98696.22;5070484;28;20199;-56
2022/08/21 00:45:10;;;;;;;14.07;6.63;;;;;;;22.02;100.00;98704.91;5070585;28;20192;-56
2022/08/21 00:47:37;;;;;;;13.23;7.20;;;;;;;21.99;100.00;98698.09;5070536;28;20206;-56
2022/08/21 00:50:07;;;;;;;9.38;6.57;;;;;;;22.05;100.00;98694.06;5070369;28;20279;-55
2022/08/21 00:52:36;;;;;;;12.98;6.85;;;;;;;21.95;100.00;98683.44;5070476;28;20285;-55
2022/08/21 00:55:06;;;;;;;13.25;6.80;;;;;;;21.90;100.00;98706.78;5070182;28;20584;-55
2022/08/21 00:57:39;;;;;;;16.25;6.63;;;;;;;21.84;100.00;98707.34;5070594;28;20217;-56
2022/08/21 01:00:12;;;;;;;13.80;6.50;;;;;;;21.82;100.00;98708.44;5070504;28;20230;-56
2022/08/21 01:02:39;;;;;;;7.93;5.70;;;;;;;21.77;100.00;98703.56;5070365;28;20536;-55
2022/08/21 01:05:07;;;;;;;11.55;6.50;;;;;;;21.72;100.00;98717.16;5070353;28;20204;-56
2022/08/21 01:07:35;;;;;;;10.23;6.57;;;;;;;21.69;100.00;98712.16;5070244;28;20597;-55
2022/08/21 01:10:02;;;;;;;9.70;6.88;;;;;;;21.78;100.00;98707.88;5070461;28;20235;-57
2022/08/21 01:12:29;;;;;;;9.90;6.57;;;;;;;21.83;100.00;98699.53;5070350;28;20279;-58
2022/08/21 01:14:58;;;;;;;11.32;6.25;;;;;;;21.73;100.00;98684.50;5070097;28;20231;-58
2022/08/21 01:17:27;;;;;;;11.88;6.85;;;;;;;21.80;100.00;98681.31;5070066;28;20211;-58
2022/08/21 01:19:57;;;;;;;11.90;6.38;;;;;;;21.79;100.00;98677.00;5069825;28;20582;-55
2022/08/21 01:22:26;;;;;;;12.48;6.32;;;;;;;21.91;100.00;98678.56;5070439;28;20283;-56
2022/08/21 01:24:53;;;;;;;10.98;6.85;;;;;;;21.98;100.00;98671.78;5069868;28;20192;-56
2022/08/21 01:27:20;;;;;;;13.10;6.70;;;;;;;21.96;100.00;98660.50;5069893;28;20206;-58
2022/08/21 01:29:55;;;;;;;13.13;6.90;;;;;;;22.06;100.00;98664.03;5070011;28;20733;-55
2022/08/21 01:32:22;;;;;;;13.75;6.53;;;;;;;22.12;100.00;98660.00;5069840;28;20203;-55
2022/08/21 01:34:51;;;;;;;9.80;7.00;;;;;;;21.94;100.00;98657.16;5069501;28;20246;-59
2022/08/21 01:37:20;;;;;;;9.48;7.45;;;;;;;21.81;100.00;98638.91;5069689;28;20206;-59
2022/08/21 01:39:49;;;;;;;11.13;7.25;;;;;;;21.82;100.00;98650.31;5069825;28;20202;-58
2022/08/21 01:42:16;;;;;;;8.43;6.70;;;;;;;21.84;100.00;98658.94;5068715;28;20569;-58
2022/08/21 01:44:44;;;;;;;11.27;6.78;;;;;;;21.78;100.00;98654.22;5069544;28;20192;-58
2022/08/21 01:47:13;;;;;;;12.45;6.70;;;;;;;21.80;100.00;98658.38;5069558;28;20227;-56
2022/08/21 01:49:41;;;;;;;8.95;5.95;;;;;;;21.53;100.00;98624.69;5069799;28;20198;-56
2022/08/21 01:52:09;;;;;;;8.15;6.15;;;;;;;21.81;100.00;98669.78;5069642;28;20200;-56
2022/08/21 01:54:37;;;;;;;13.07;6.90;;;;;;;21.81;100.00;98675.91;5069539;28;20231;-56
2022/08/21 01:57:06;;;;;;;9.02;6.18;;;;;;;21.84;100.00;98690.66;5069615;28;20242;-57
2022/08/21 01:59:35;;;;;;;9.50;6.57;;;;;;;21.89;100.00;98714.88;5069485;28;20196;-56
2022/08/21 02:02:03;;;;;;;9.52;6.00;;;;;;;21.96;100.00;98722.09;5069595;28;20226;-56
2022/08/21 02:04:30;;;;;;;11.63;6.60;;;;;;;21.99;100.00;98744.81;5069787;28;20207;-57
2022/08/21 02:06:57;;;;;;;14.55;7.00;;;;;;;21.97;100.00;98747.56;5069426;28;20283;-57
2022/08/21 02:09:24;;;;;;;15.80;7.15;;;;;;;21.96;100.00;98758.25;5069419;28;20390;-58
2022/08/21 02:11:51;;;;;;;10.07;7.93;;;;;;;21.88;100.00;98743.09;5069549;28;20587;-58
2022/08/21 02:14:20;;;;;;;11.13;7.72;;;;;;;21.88;100.00;98744.91;5069301;28;20677;-56
2022/08/21 02:16:47;;;;;;;8.82;7.75;;;;;;;21.87;100.00;98738.78;5069335;28;20202;-56
2022/08/21 02:19:16;;;;;;;13.63;8.43;;;;;;;21.86;100.00;98731.81;5069194;28;20640;-56
2022/08/21 02:21:43;;;;;;;17.73;8.20;;;;;;;21.81;100.00;98735.81;5069224;28;20221;-56
2022/08/21 02:24:11;;;;;;;9.60;8.48;;;;;;;21.89;100.00;98739.47;5069284;28;20202;-56
2022/08/21 02:26:38;;;;;;;14.45;8.40;;;;;;;21.90;100.00;98745.56;5069428;28;20200;-57
2022/08/21 02:29:05;;;;;;;10.82;8.38;;;;;;;21.93;100.00;98743.50;5069412;28;20295;-57
2022/08/21 02:31:34;;;;;;;17.67;9.13;;;;;;;21.98;100.00;98751.91;5069378;28;20195;-59
2022/08/21 02:34:01;;;;;;;8.85;7.97;;;;;;;22.03;100.00;98756.78;5069019;28;20254;-58
2022/08/21 02:36:28;;;;;;;14.20;8.82;;;;;;;21.97;100.00;98765.22;5068873;28;20614;-55
2022/08/21 02:38:55;;;;;;;11.43;9.18;;;;;;;21.88;100.00;98760.75;5068948;28;20702;-57
2022/08/21 02:41:23;;;;;;;14.18;9.50;;;;;;;21.84;100.00;98765.47;5069466;28;20269;-58
2022/08/21 02:43:51;;;;;;;14.55;9.93;;;;;;;21.82;100.00;98766.53;5069189;28;20192;-56
2022/08/21 02:46:20;;;;;;;12.43;9.43;;;;;;;21.77;100.00;98768.78;5069306;28;20199;-57
2022/08/21 02:48:49;;;;;;;15.02;10.25;;;;;;;21.80;100.00;98776.41;5069182;28;20199;-57
2022/08/21 02:51:19;;;;;;;11.30;9.32;;;;;;;21.80;100.00;98766.69;5069160;28;20192;-58
2022/08/21 02:53:48;;;;;;;17.75;10.10;;;;;;;21.77;100.00;98768.78;5072450;28;20218;-56
2022/08/21 02:56:21;;;;;;;15.32;10.00;;;;;;;21.73;100.00;98761.09;5072996;28;20203;-57
2022/08/21 02:58:51;;;;;;;16.50;10.13;;;;;;;21.72;100.00;98740.94;5072835;28;20253;-57
2022/08/21 03:01:19;;;;;;;15.63;10.32;;;;;;;21.77;100.00;98753.75;5072702;28;20215;-56
2022/08/21 03:03:50;;;;;;;11.55;9.18;;;;;;;21.78;100.00;98750.16;5072477;28;20592;-55
2022/08/21 03:06:19;;;;;;;11.25;9.20;;;;;;;21.88;100.00;98750.19;5072411;28;20204;-56
2022/08/21 03:08:46;;;;;;;13.02;9.52;;;;;;;21.83;100.00;98747.94;5072455;28;20237;-55
2022/08/21 03:11:13;;;;;;;14.48;9.63;;;;;;;21.90;100.00;98753.50;5072353;28;20192;-55
2022/08/21 03:13:40;;;;;;;12.30;9.63;;;;;;;21.90;100.00;98753.50;5072580;28;20196;-55
2022/08/21 03:16:08;;;;;;;11.43;9.55;;;;;;;21.86;100.00;98760.03;5072400;28;20195;-55
2022/08/21 03:18:35;;;;;;;13.02;10.45;;;;;;;21.90;100.00;98775.47;5072520;28;20446;-56
2022/08/21 03:21:04;;;;;;;14.40;10.60;;;;;;;21.85;100.00;98776.84;5071992;28;20223;-56
2022/08/21 03:23:31;;;;;;;24.17;11.13;;;;;;;21.74;100.00;98765.41;5072447;28;20705;-56
2022/08/21 03:25:58;;;;;;;17.42;11.00;;;;;;;21.72;100.00;98764.72;5072231;28;20203;-57
2022/08/21 03:28:26;;;;;;;12.05;10.88;;;;;;;21.63;100.00;98762.88;5072257;28;20681;-56
2022/08/21 03:30:53;;;;;;;14.95;11.05;;;;;;;21.64;100.00;98758.44;5072190;28;20594;-56
2022/08/21 03:33:21;;;;;;;15.90;10.60;;;;;;;21.68;100.00;98765.94;5072081;28;20666;-55
2022/08/21 03:35:55;;;;;;;12.23;10.90;;;;;;;21.71;100.00;98763.03;5072066;28;20596;-54
2022/08/21 03:38:23;;;;;;;19.27;10.95;;;;;;;21.68;100.00;98763.28;5071975;28;20208;-56
2022/08/21 03:40:50;;;;;;;18.02;10.52;;;;;;;21.62;100.00;98766.47;5071909;28;20235;-55
2022/08/21 03:43:17;;;;;;;17.40;9.98;;;;;;;21.69;100.00;98764.13;5072024;28;20746;-56
2022/08/21 03:45:44;;;;;;;15.73;10.98;;;;;;;;;;5071821;28;20708;-56
2022/08/21 03:48:10;;;;;;;12.48;10.65;;;;;;;21.70;100.00;98779.84;5071943;28;20278;-56
2022/08/21 03:50:40;;;;;;;11.27;10.00;;;;;;;21.72;100.00;98772.63;5071914;28;20238;-55
2022/08/21 03:53:07;;;;;;;14.63;9.77;;;;;;;21.82;100.00;98771.84;5071994;28;20227;-55
2022/08/21 03:55:36;;;;;;;13.68;10.20;;;;;;;21.71;100.00;98778.03;5071766;28;20206;-54
2022/08/21 03:58:03;;;;;;;15.48;10.55;;;;;;;21.65;100.00;98771.50;5071906;28;20206;-55
2022/08/21 04:00:30;;;;;;;15.18;10.40;;;;;;;21.58;100.00;98785.34;5071374;28;20283;-55
2022/08/21 04:02:57;;;;;;;15.75;10.07;;;;;;;21.50;100.00;98783.38;5071635;28;20271;-55
2022/08/21 04:05:30;;;;;;;11.48;10.27;;;;;;;21.57;100.00;98778.38;5070086;28;20200;-55
2022/08/21 04:07:59;;;;;;;15.88;10.13;;;;;;;21.61;100.00;98774.53;5070239;28;20200;-55
2022/08/21 04:10:27;;;;;;;13.27;9.88;;;;;;;21.52;100.00;98762.97;5071288;28;20697;-55
2022/08/21 04:12:56;;;;;;;18.30;10.70;;;;;;;21.61;100.00;98785.94;5070861;28;20206;-56
2022/08/21 04:15:26;;;;;;;11.60;10.15;;;;;;;21.50;100.00;98783.38;5070531;28;20277;-57
2022/08/21 04:17:54;;;;;;;23.67;11.65;;;;;;;21.30;100.00;98778.94;5069729;28;20195;-57
2022/08/21 04:20:22;;;;;;;15.13;11.25;;;;;;;21.10;100.00;98782.41;5069938;28;20195;-57
2022/08/21 04:22:50;;;;;;;18.30;11.80;;;;;;;21.01;100.00;98779.53;5069645;28;20215;-56
2022/08/21 04:25:19;;;;;;;17.77;10.80;;;;;;;20.99;100.00;98780.66;5069808;28;20200;-55
2022/08/21 04:27:47;;;;;;;21.30;12.75;;;;;;;20.92;100.00;98780.31;5067032;28;20192;-55
2022/08/21 04:30:16;;;;;;;18.70;13.07;;;;;;;20.89;100.00;98782.34;5069613;28;20291;-56
2022/08/21 04:32:44;;;;;;;23.13;13.95;;;;;;;20.86;100.00;98780.84;5070263;28;20587;-58
2022/08/21 04:35:12;;;;;;;17.65;12.55;;;;;;;20.95;100.00;98787.97;5069992;28;20717;-56
2022/08/21 04:37:39;;;;;;;22.80;13.57;;;;;;;20.99;100.00;98767.47;5070245;28;20549;-57
2022/08/21 04:40:09;;;;;;;23.50;13.75;;;;;;;21.09;100.00;98770.16;5069717;28;20595;-55
2022/08/21 04:42:44;;;;;;;19.95;13.35;;;;;;;21.15;100.00;98759.09;5070136;28;20259;-56
2022/08/21 04:45:20;;;;;;;23.80;14.80;;;;;;;21.17;100.00;98765.06;5069830;28;20700;-54
2022/08/21 04:47:49;;;;;;;16.25;13.07;;;;;;;21.21;100.00;98766.53;5069921;28;20200;-55
2022/08/21 04:50:16;;;;;;;16.55;13.60;;;;;;;21.18;100.00;98757.06;5069698;28;20586;-54
2022/08/21 04:52:43;;;;;;;17.55;13.77;;;;;;;21.12;100.00;98748.78;5069626;28;20193;-55
2022/08/21 04:55:11;;;;;;;17.75;12.77;;;;;;;21.18;100.00;98748.28;5070052;28;20646;-57
2022/08/21 04:57:39;;;;;;;17.20;12.77;;;;;;;21.26;100.00;98740.56;5069792;28;20200;-55
2022/08/21 05:00:07;;;;;;;21.23;13.75;;;;;;;21.35;100.00;98745.91;5069597;28;20283;-55
2022/08/21 05:02:37;;;;;;;17.77;12.27;;;;;;;21.43;100.00;98742.63;5069362;28;20232;-55
2022/08/21 05:05:05;;;;;;;15.95;12.50;;;;;;;21.51;100.00;98740.16;5069323;28;20551;-55
2022/08/21 05:07:33;;;;;;;14.70;11.40;;;;;;;21.44;100.00;98738.19;5069279;28;20198;-57
2022/08/21 05:10:01;;;;;;;16.35;12.65;;;;;;;21.64;100.00;98743.41;5069884;28;20655;-57
2022/08/21 05:12:28;;;;;;;19.98;12.88;;;;;;;21.76;100.00;98745.97;5070172;28;20192;-57
2022/08/21 05:14:55;;;;;;;15.23;12.38;;;;;;;21.81;100.00;98749.84;5070014;28;20290;-57
2022/08/21 05:17:23;;;;;;;14.27;12.60;;;;;;;21.97;100.00;98750.22;5069887;28;20206;-57
2022/08/21 05:19:52;;;;;;;15.07;11.32;;;;;;;22.03;100.00;98730.34;5069856;28;20340;-58
2022/08/21 05:22:24;;;;;;;19.02;11.63;;;;;;;22.13;100.00;98733.84;5070170;28;20224;-57
2022/08/21 05:24:51;;;;;;;16.48;11.93;;;;;;;22.06;100.00;98733.56;5070256;28;20192;-61
2022/08/21 05:27:18;;;;;;;22.33;12.30;;;;;;;21.86;100.00;98731.81;5069998;28;20249;-61
2022/08/21 05:29:45;;;;;;;14.20;10.57;;;;;;;21.84;100.00;98733.75;5070074;28;20200;-57
2022/08/21 05:32:13;;;;;;;12.07;10.80;;;;;;;21.86;100.00;98736.25;5069812;28;20203;-57
2022/08/21 05:34:40;;;;;;;11.68;9.98;;;;;;;21.88;100.00;98735.16;5069739;28;20231;-57
2022/08/21 05:37:11;;;;;;;11.60;9.88;;;;;;;21.84;100.00;98732.91;5070040;28;20221;-60
2022/08/21 05:39:38;;;;;;;12.00;9.63;;;;;;;21.81;100.00;98739.28;5069768;28;20200;-60
2022/08/21 05:42:06;;;;;;;13.55;9.73;;;;;;;21.87;100.00;98737.94;5069673;28;20729;-61
2022/08/21 05:44:33;;;;;;;16.55;9.63;;;;;;;21.94;100.00;98742.53;5069830;28;20196;-61
2022/08/21 05:47:05;;;;;;;17.77;10.82;;;;;;;21.94;100.00;98747.81;5069011;28;20199;-60
2022/08/21 05:49:32;;;;;;;15.38;10.70;;;;;;;21.98;100.00;98748.41;5069954;28;20747;-60
2022/08/21 05:51:59;;;;;;;13.88;9.82;;;;;;;21.91;100.00;98748.09;5069607;28;20202;-59
2022/08/21 05:54:27;;;;;;;12.75;10.07;;;;;;;22.00;100.00;98730.66;5069528;28;20199;-60
2022/08/21 05:56:54;;;;;;;12.18;9.95;;;;;;;21.99;100.00;98750.09;5069549;28;20196;-64
2022/08/21 05:59:21;;;;;;;15.85;10.13;;;;;;;21.86;100.00;98747.66;5068799;28;20222;-60
2022/08/21 06:01:48;;;;;;;14.00;10.45;;;;;;;21.86;100.00;98757.41;5069317;28;20263;-57
2022/08/21 06:04:16;;;;;;;16.55;11.63;;;;;;;21.93;100.00;98753.25;5069756;28;20283;-57
2022/08/21 06:06:43;;;;;;;20.10;15.55;;;;;;;21.88;100.00;98750.19;5069666;28;20302;-57
2022/08/21 06:09:10;;;;;;;20.77;14.68;;;;;;;21.87;100.00;98765.19;5069588;28;20703;-58
2022/08/21 06:11:38;;;;;;;22.58;13.55;;;;;;;21.89;100.00;98763.25;5069247;28;20211;-57
2022/08/21 06:14:06;;;;;;;16.27;12.07;;;;;;;21.92;100.00;98768.25;5069075;28;20596;-58
2022/08/21 06:16:33;;;;;;;20.65;12.40;;;;;;;21.91;100.00;98768.38;5069408;28;20682;-60
2022/08/21 06:19:00;;;;;;;13.77;11.30;;;;;;;21.93;100.00;98772.56;5069729;28;20206;-60
2022/08/21 06:21:27;;;;;;;13.70;11.20;;;;;;;21.80;100.00;98760.56;5069700;28;20204;-56
2022/08/21 06:23:55;;;;;;;17.92;11.55;;;;;;;21.83;100.00;98776.16;5069703;28;20580;-56
2022/08/21 06:26:23;;;;;;;13.25;10.52;;;;;;;21.83;100.00;98773.50;5069083;28;20235;-60
2022/08/21 06:28:52;;;;;;;16.77;11.35;;;;;;;21.86;100.00;98767.97;5073013;28;20261;-60
2022/08/21 06:31:20;;;;;;;21.25;12.02;;;;;;;21.88;100.00;98768.69;5073269;28;20652;-59
2022/08/21 06:33:47;;;;;;;15.50;11.27;;;;;;;22.04;100.00;98769.88;5073229;28;20196;-60
2022/08/21 06:36:15;;;;;;;12.82;10.90;;;;;;;22.03;100.00;98760.25;5073450;28;20614;-60
2022/08/21 06:38:42;;;;;;;17.23;10.52;;;;;;;22.12;100.00;98769.22;5073652;28;20192;-59
2022/08/21 06:41:09;;;;;;;15.18;10.90;;;;;;;22.12;100.00;98758.63;5072897;28;20204;-59
2022/08/21 06:43:36;;;;;;;16.63;12.68;;;;;;;22.17;100.00;98759.06;5072893;28;20246;-59
2022/08/21 06:46:04;;;;;;;13.35;10.25;;;;;;;22.26;100.00;98757.38;5073065;28;20192;-59
2022/08/21 06:48:32;;;;;;;21.77;13.85;;;;;;;22.35;100.00;98752.13;5072928;28;20196;-59
2022/08/21 06:50:59;;;;;;;14.35;11.00;;;;;;;22.41;100.00;98742.81;5072841;28;20654;-60
2022/08/21 06:53:27;;;;;;;13.05;10.90;;;;;;;22.59;100.00;98746.44;5072715;28;20262;-60
2022/08/21 06:55:54;;;;;;;17.48;11.07;;;;;;;22.65;100.00;98731.84;5071373;28;20200;-60
2022/08/21 06:58:21;;;;;;;16.17;10.55;;;;;;;22.81;100.00;98740.06;5072777;28;20191;-59
2022/08/21 07:00:51;;;;;;;13.95;11.50;;;;;;;22.91;100.00;98740.09;5073125;28;20221;-59
2022/08/21 07:03:22;;;;;;;15.48;10.73;;;;;;;22.88;100.00;98749.13;5072615;28;20220;-59
2022/08/21 07:05:49;;;;;;;13.82;10.52;;;;;;;23.01;100.00;98748.84;5072790;28;20257;-59
2022/08/21 07:08:16;;;;;;;13.50;11.50;;;;;;;22.99;100.00;98738.38;5072731;28;20204;-59
2022/08/21 07:10:43;;;;;;;17.25;11.73;;;;;;;23.03;100.00;98742.41;5072724;28;20588;-60
2022/08/21 07:13:10;;;;;;;16.27;10.93;;;;;;;22.89;100.00;98711.09;5072481;28;20192;-60
2022/08/21 07:15:37;;;;;;;15.85;10.43;;;;;;;23.13;100.00;98730.03;5072479;28;20204;-59
2022/08/21 07:18:04;;;;;;;19.13;10.60;;;;;;;23.28;100.00;98737.47;5072453;28;20295;-59
2022/08/21 07:20:33;;;;;;;13.48;10.55;;;;;;;23.39;100.00;98732.03;5072234;28;20196;-57
2022/08/21 07:23:04;;;;;;;18.27;12.30;;;;;;;23.55;100.00;98740.25;5072346;28;20935;-57
2022/08/21 07:25:31;;;;;;;15.23;11.98;;;;;;;23.41;100.00;98727.41;5072481;28;20202;-59
2022/08/21 07:27:58;;;;;;;16.20;11.35;;;;;;;23.69;100.00;98742.41;5072346;28;20188;-59
2022/08/21 07:30:25;;;;;;;14.93;12.35;;;;;;;23.61;100.00;98731.69;5072015;28;20303;-59
2022/08/21 07:32:52;;;;;;;16.10;12.45;;;;;;;23.70;100.00;98725.50;5071922;28;20188;-59
2022/08/21 07:35:20;;;;;;;18.52;12.57;;;;;;;23.92;100.00;98734.09;5071900;28;20227;-57
2022/08/21 07:37:49;;;;;;;14.85;12.32;;;;;;;23.95;100.00;98731.13;5071079;28;20188;-57
2022/08/21 07:40:17;;;;;;;19.05;11.75;;;;;;;24.01;100.00;98730.53;5069916;28;20202;-59
2022/08/21 07:42:47;;;;;;;15.27;12.45;;;;;;;24.10;100.00;98727.84;5070861;28;20728;-58
2022/08/21 07:45:15;;;;;;;18.40;11.82;;;;;;;24.10;100.00;98713.75;5070668;28;20621;-60
2022/08/21 07:47:42;;;;;;;15.32;11.98;;;;;;;24.28;100.00;98722.56;5068484;28;20322;-60
2022/08/21 07:50:09;;;;;;;14.85;10.38;;;;;;;24.48;100.00;98731.25;5071724;28;20204;-58
2022/08/21 07:52:36;;;;;;;16.48;11.63;;;;;;;24.59;100.00;98737.16;5071707;28;20192;-59
2022/08/21 07:55:06;;;;;;;16.17;11.40;;;;;;;24.34;100.00;98732.59;5071587;28;20198;-58
2022/08/21 07:57:33;;;;;;;15.20;13.32;;;;;;;24.13;100.00;98686.94;5071641;28;20282;-58
2022/08/21 08:00:00;;;;;;;15.10;12.52;;;;;;;24.47;100.00;98737.53;5071663;28;20559;-59
2022/08/21 08:02:29;;;;;;;23.70;18.42;;;;;;;24.47;100.00;98722.47;5071330;28;20234;-59
2022/08/21 08:05:00;;;;;;;18.20;12.88;;;;;;;24.50;100.00;98742.53;5071693;28;20743;-58
2022/08/21 08:07:27;;;;;;;15.98;13.40;;;;;;;24.43;100.00;98744.94;5071498;28;20203;-57
2022/08/21 08:09:54;;;;;;;15.90;13.93;;;;;;;24.38;100.00;98741.09;5071596;28;20192;-60
2022/08/21 08:12:23;;;;;;;18.23;11.18;;;;;;;24.21;100.00;98732.09;5071553;28;20192;-59
2022/08/21 08:14:49;;;;;;;18.17;12.85;;;;;;;24.29;100.00;98732.19;5071335;28;20233;-58
2022/08/21 08:17:18;;;;;;;16.83;10.60;;;;;;;24.33;100.00;98724.78;5071188;28;20235;-58
2022/08/21 08:19:45;;;;;;;15.68;10.15;;;;;;;24.27;100.00;98720.91;5070941;28;20232;-58
2022/08/21 08:22:16;;;;;;;11.57;9.88;;;;;;;24.31;100.00;98722.28;5071108;28;20199;-58
2022/08/21 08:24:43;;;;;;;15.82;11.23;;;;;;;24.38;100.00;98718.03;5071062;28;20203;-58
2022/08/21 08:27:10;;;;;;;12.10;10.13;;;;;;;24.44;100.00;98724.56;5071024;28;20287;-58
2022/08/21 08:29:39;;;;;;;14.30;11.05;;;;;;;24.48;100.00;98723.28;5070991;28;20208;-58
2022/08/21 08:32:07;;;;;;;15.23;11.70;;;;;;;24.50;100.00;98721.28;5070932;28;20283;-58
2022/08/21 08:34:34;;;;;;;15.50;10.95;;;;;;;24.49;100.00;98725.78;5070752;28;20267;-58
2022/08/21 08:37:01;;;;;;;10.10;8.82;;;;;;;24.35;100.00;98705.09;5070818;28;20200;-58
2022/08/21 08:39:28;;;;;;;17.30;10.13;;;;;;;24.33;100.00;98715.00;5070521;28;20287;-58
2022/08/21 08:42:02;;;;;;;27.08;19.20;;;;;;;24.36;100.00;98708.59;5070467;28;20238;-59
2022/08/21 08:44:29;;;;;;;24.13;19.63;;;;;;;24.43;100.00;98718.44;5070560;28;20737;-58
2022/08/21 08:47:00;;;;;;;16.40;11.40;;;;;;;24.45;100.00;98713.81;5070683;28;20196;-58
2022/08/21 08:49:35;;;;;;;15.35;10.52;;;;;;;24.22;100.00;98708.13;5070589;28;20199;-58
2022/08/21 08:52:06;;;;;;;12.38;10.00;;;;;;;24.11;100.00;98695.03;5070390;28;20231;-58
2022/08/21 08:54:38;;;;;;;17.98;10.48;;;;;;;24.13;100.00;98682.47;5070325;28;20213;-58
2022/08/21 08:57:10;;;;;;;16.10;10.70;;;;;;;24.33;100.00;98704.41;5070698;28;20295;-58
2022/08/21 08:59:42;;;;;;;16.85;11.77;;;;;;;24.31;100.00;98700.22;5070586;28;20196;-58
2022/08/21 09:02:12;;;;;;;22.25;16.15;;;;;;;24.42;100.00;98692.88;5070232;28;20618;-57
2022/08/21 09:04:40;;;;;;;33.03;23.42;;;;;;;24.38;100.00;98675.59;5069097;28;20216;-57
2022/08/21 09:07:17;;;;;;;13.95;11.48;;;;;;;24.54;100.00;98696.97;5069688;28;20192;-57
2022/08/21 09:09:56;;;;;;;11.20;10.07;;;;;;;24.47;100.00;98701.25;5067931;28;20188;-57
2022/08/21 09:12:34;;;;;;;15.43;10.20;;;;;;;24.49;100.00;98693.13;5062953;28;20278;-58
2022/08/21 09:15:12;;;;;;;18.77;10.23;;;;;;;24.58;100.00;98693.03;5067292;28;20241;-58
2022/08/21 09:18:00;;;;;;;14.30;10.73;;;;;;;24.57;100.00;98694.03;5067416;28;20192;-59
2022/08/21 09:20:38;;;;;;;12.52;10.45;;;;;;;24.73;100.00;98684.50;5068538;28;20207;-59
2022/08/21 09:23:18;;;;;;;14.38;10.93;;;;;;;24.85;100.00;98676.16;5068085;28;20215;-59
2022/08/21 09:25:55;;;;;;;17.80;10.52;;;;;;;24.94;100.00;98677.09;5067970;28;20207;-59
2022/08/21 09:28:22;;;;;;;10.80;9.50;;;;;;;24.87;100.00;98678.66;5067276;28;20194;-59
2022/08/21 09:30:51;;;;;;;13.32;10.20;;;;;;;24.98;100.00;98678.44;5069624;28;20196;-59
2022/08/21 09:33:20;;;;;;;14.25;10.45;;;;;;;25.20;100.00;98669.94;5067326;28;20195;-58
2022/08/21 09:35:53;;;;;;;12.85;9.88;;;;;;;25.27;100.00;98671.00;5068215;28;20784;-58
2022/08/21 09:38:27;;;;;;;12.90;10.25;;;;;;;25.14;100.00;98667.94;5068280;28;20196;-59
2022/08/21 09:41:01;;;;;;;14.07;9.73;;;;;;;25.39;100.00;98666.25;5068607;28;20201;-58
2022/08/21 09:43:29;;;;;;;13.30;10.18;;;;;;;25.63;100.00;98657.56;5052191;28;20298;-60
2022/08/21 09:46:11;;;;;;;15.02;10.27;;;;;;;25.78;100.00;98657.78;5068377;28;20196;-59
2022/08/21 09:48:48;;;;;;;15.52;11.05;;;;;;;25.79;100.00;98657.63;5067468;28;20192;-57
2022/08/21 09:51:18;;;;;;;13.90;10.00;;;;;;;25.84;100.00;98665.13;5068768;28;20661;-59
2022/08/21 09:53:48;;;;;;;12.73;9.82;;;;;;;25.96;100.00;98667.31;5068272;28;20191;-60
2022/08/21 09:59:17;;;;;;;17.15;10.45;;;;;;;25.96;100.00;98664.66;5069522;28;20687;-59
2022/08/21 10:01:45;;;;;;;12.23;10.80;;;;;;;25.76;100.00;98673.91;5063280;28;20677;-58
2022/08/21 10:04:14;;;;;;;12.52;10.93;;;;;;;25.84;100.00;98679.25;5069432;28;20318;-60
2022/08/21 10:06:41;;;;;;;17.77;11.35;;;;;;;25.90;100.00;98678.59;5069489;28;20213;-60
2022/08/21 10:09:11;;;;;;;18.30;12.20;;;;;;;25.83;100.00;98677.59;5069438;28;20562;-60
2022/08/21 10:11:40;;;;;;;18.95;12.05;;;;;;;25.75;100.00;98677.53;5069350;28;20696;-60
2022/08/21 10:14:19;;;;;;;17.80;11.43;;;;;;;25.75;100.00;98672.22;5069541;28;20196;-60
2022/08/21 10:16:56;;;;;;;12.98;10.88;;;;;;;25.70;100.00;98674.56;5069209;28;20214;-60
2022/08/21 10:19:33;;;;;;;13.43;10.25;;;;;;;25.52;100.00;98668.44;5069455;28;20203;-60
2022/08/21 10:22:10;;;;;;;16.15;9.60;;;;;;;25.51;100.00;98669.44;5069932;28;20253;-61
2022/08/21 10:24:46;;;;;;;11.88;10.65;;;;;;;25.46;100.00;98666.44;5068484;28;20215;-60
2022/08/21 10:27:20;;;;;;;17.75;10.07;;;;;;;25.54;100.00;98663.81;5069373;28;20278;-59
2022/08/21 10:29:54;;;;;;;17.00;10.52;;;;;;;25.61;100.00;98671.03;5069218;28;20196;-59
2022/08/21 10:32:34;;;;;;;18.08;10.57;;;;;;;25.59;100.00;98670.31;5069611;28;20210;-59
2022/08/21 10:35:10;;;;;;;14.73;10.60;;;;;;;25.60;100.00;98668.50;5069060;28;20232;-59
2022/08/21 10:37:50;;;;;;;12.38;10.23;;;;;;;25.54;100.00;98669.13;5069456;28;20196;-59
2022/08/21 10:40:26;;;;;;;17.73;10.10;;;;;;;25.47;100.00;98670.75;5069019;28;20695;-59
2022/08/21 10:43:05;;;;;;;14.52;10.40;;;;;;;25.23;100.00;98668.81;5068731;28;20210;-60
2022/08/21 10:45:49;;;;;;;15.05;11.10;;;;;;;25.30;100.00;98669.84;5069096;28;20298;-58
2022/08/21 10:48:24;;;;;;;14.13;11.50;;;;;;;25.27;100.00;98672.81;5068944;28;20687;-58
2022/08/21 10:50:59;;;;;;;14.52;10.68;;;;;;;25.23;100.00;98668.81;5068748;28;20287;-56
2022/08/21 10:53:45;;;;;;;16.50;11.82;;;;;;;24.94;100.00;98656.66;5068919;28;20195;-58
2022/08/21 10:56:18;;;;;;;20.27;11.43;;;;;;;24.91;100.00;98667.59;5068763;28;20214;-59
2022/08/21 10:58:50;;;;;;;19.00;11.52;;;;;;;24.86;100.00;98666.38;5068930;28;20204;-58
2022/08/21 11:01:23;;;;;;;22.98;12.65;;;;;;;24.80;100.00;98672.31;5068951;28;20202;-59
2022/08/21 11:03:55;;;;;;;20.88;12.65;;;;;;;24.94;100.00;98669.13;5068171;28;20658;-58
2022/08/21 11:06:27;;;;;;;24.17;14.55;;;;;;;25.00;100.00;98670.31;5065777;28;20283;-58
2022/08/21 11:09:00;;;;;;;23.23;14.48;;;;;;;24.91;100.00;98666.75;5068530;28;20595;-58
2022/08/21 11:11:33;;;;;;;24.48;13.57;;;;;;;24.96;100.00;98667.13;5066504;28;20200;-59
2022/08/21 11:14:04;;;;;;;16.40;13.25;;;;;;;25.12;100.00;98675.22;5070057;28;20274;-59
2022/08/21 11:16:37;;;;;;;19.00;12.55;;;;;;;25.04;100.00;98645.13;5072041;28;20303;-58
2022/08/21 11:19:11;;;;;;;17.17;13.05;;;;;;;25.14;100.00;98672.41;5072205;28;20260;-59
2022/08/21 11:21:45;;;;;;;23.73;13.55;;;;;;;25.18;100.00;98665.78;5072241;28;20205;-59
2022/08/21 11:24:29;;;;;;;20.73;13.85;;;;;;;25.02;100.00;98655.91;5072148;28;20306;-60
2022/08/21 11:27:02;;;;;;;16.45;12.50;;;;;;;25.07;100.00;98655.41;5072397;28;20195;-59